Latest Coastal Weather Observations for Jervis Bay Airfield

IDN60701

Issued at 10:11 pm EST Friday 19 July 2019 (issued every 10 minutes, with the page automatically refreshed every 10 minutes)

About coastal observations | Map of coastal stations | Coastal observations for NSW | Marine services | Other Formats
Station Details ID: 068264 Name: JERVIS BAY AIRFIELD AWS Lat: -35.14 Lon: 150.70 Height: 57.18 m
Data from the previous 72 hours. | See also: Recent months at Jervis Bay Airfield
Date/Time
EST
Wind Sea
Height
m
Swell Vis
km
Cloud Weather Temp
°C
Press
hPa
Rain since
9am
mm
Dir  Spd
kts
Gust
kts
Height
m
Period
s
Dir
19/10:00pm N 5 6 - - - - 10 Clear - 9.8 1022.4 0.0
19/09:30pm NNW 3 5 - - - - 10 - - 9.8 1022.2 0.0
19/09:00pm NNW 5 7 - - - - 10 - - 10.7 1022.0 0.0
19/08:30pm NW 4 5 - - - - 10 - - 9.0 1021.9 0.0
19/08:00pm WNW 4 6 - - - - 10 - - 9.8 1021.7 0.0
19/07:30pm WNW 1 4 - - - - 10 - - 10.8 1021.5 0.0
19/07:00pm N 6 8 - - - - 10 - - 11.9 1021.2 0.0
19/06:30pm ENE 6 7 - - - - 10 - - 11.1 1021.0 0.0
19/06:00pm ENE 6 7 - - - - 10 - - 11.6 1020.5 0.0
19/05:30pm ENE 4 5 - - - - 10 - - 12.2 1020.1 0.0
19/05:00pm ENE 5 7 - - - - 10 - - 13.6 1019.7 0.0
19/04:30pm E 5 8 - - - - 10 - - 15.6 1019.3 0.0
19/04:00pm E 7 8 - - - - 10 - - 16.2 1019.2 0.0
19/03:30pm ESE 7 9 - - - - 10 - - 16.7 1018.9 0.0
19/03:00pm S 2 4 - - - - 10 - - 18.6 1018.7 0.0
19/02:30pm SSE 2 5 - - - - 10 - - 17.4 1018.6 0.0
19/02:00pm SW 5 8 - - - - 10 - - 17.6 1018.5 0.0
19/01:30pm S 7 9 - - - - 10 - - 17.4 1018.3 0.0
19/01:00pm W 5 8 - - - - 10 - - 17.1 1018.3 0.0
19/12:30pm NW 7 10 - - - - 10 - - 17.1 1018.5 0.0
19/12:00pm WNW 9 12 - - - - 10 - - 16.4 1018.8 0.0
19/11:30am WNW 10 12 - - - - 10 - - 15.9 1019.2 0.0
19/11:00am WNW 9 13 - - - - 10 - - 15.3 1019.5 0.0
19/10:30am WNW 11 15 - - - - 10 - - 14.5 1019.4 0.0
19/10:00am W 11 15 - - - - 10 - - 13.5 1019.4 0.0
19/09:30am WNW 11 16 - - - - 10 - - 12.9 1019.2 0.0
19/09:00am W 10 15 - - - - 10 - - 11.9 1018.7 0.0
19/08:30am W 8 12 - - - - 10 - - 11.0 1018.5 0.0
19/08:00am WNW 8 11 - - - - 10 - - 10.3 1018.3 0.0
19/07:30am W 9 13 - - - - 10 - - 10.0 1018.0 0.0
19/07:00am W 8 11 - - - - 10 - - 9.3 1017.7 0.0
19/06:30am W 9 13 - - - - 10 - - 9.3 1017.4 0.0
19/06:00am W 9 12 - - - - 10 - - 8.9 1017.1 0.0
19/05:30am W 8 13 - - - - 10 - - 9.0 1016.8 0.0
19/05:00am W 9 15 - - - - 10 - - 9.4 1016.6 0.0
19/04:30am W 11 17 - - - - 10 - - 9.4 1016.2 0.0
19/04:00am W 10 14 - - - - 10 - - 9.0 1016.2 0.0
19/03:30am NW 7 12 - - - - 10 - - 8.3 1016.4 0.0
19/03:00am WNW 12 18 - - - - 10 Partly cloudy - 9.0 1016.3 0.0
19/02:30am WNW 17 24 - - - - 10 - - 9.4 1016.4 0.0
19/02:28am WNW 18 28 - - - - 10 - - 9.6 1016.4 0.0
19/02:18am WNW 19 28 - - - - 10 - - 9.5 1016.2 0.0
19/02:00am WNW 12 17 - - - - 10 - - 9.1 1016.4 0.0
19/01:30am WNW 10 14 - - - - 10 - - 8.8 1016.2 0.0
19/01:00am WNW 9 14 - - - - 10 - - 8.8 1016.3 0.0
19/12:30am WNW 13 22 - - - - 10 - - 9.2 1016.6 0.0
19/12:00am WNW 11 15 - - - - 10 - - 8.8 1016.6 0.0
 
Date/Time
EST
Wind Sea
Height
m
Swell Vis
km
Cloud Weather Temp
°C
Press
hPa
Rain since
9am
mm
Dir  Spd
kts
Gust
kts
Height
m
Period
s
Dir
18/11:30pm WNW 11 15 - - - - 10 - - 8.8 1016.8 0.0
18/11:00pm WNW 10 13 - - - - 10 - - 8.9 1016.9 0.0
18/10:30pm WNW 9 14 - - - - 10 - - 9.3 1016.9 0.0
18/10:00pm WNW 9 12 - - - - 10 - - 9.2 1016.9 0.0
18/09:30pm WNW 7 11 - - - - 10 - - 9.3 1016.9 0.0
18/09:00pm WNW 7 12 - - - - 10 - - 9.9 1016.8 0.0
18/08:30pm WNW 9 13 - - - - 10 - - 10.6 1016.8 0.0
18/08:00pm WNW 10 17 - - - - 10 - - 10.8 1016.8 0.0
18/07:30pm WNW 9 12 - - - - 10 - - 11.2 1016.5 0.0
18/07:00pm WNW 8 11 - - - - 10 - - 11.5 1016.2 0.0
18/06:30pm W 9 13 - - - - 10 - - 12.3 1016.0 0.0
18/06:00pm NNW 6 9 - - - - 10 - - 11.2 1015.6 0.0
18/05:30pm NNE 7 8 - - - - 10 - - 11.9 1015.4 0.0
18/05:00pm NE 5 7 - - - - 10 - - 12.8 1015.1 0.0
18/04:30pm ENE 5 7 - - - - 10 - - 14.7 1014.9 0.0
18/04:00pm E 6 9 - - - - 10 - - 15.2 1014.6 0.0
18/03:30pm SE 8 10 - - - - 10 - - 15.7 1014.3 0.0
18/03:00pm SE 7 10 - - - - 10 - - 16.5 1014.0 0.0
18/02:30pm S 5 8 - - - - 10 - - 16.8 1014.0 0.0
18/02:00pm SSW 7 9 - - - - 10 - - 16.6 1013.8 0.0
18/01:30pm SSW 7 10 - - - - 10 - - 16.9 1013.9 0.0
18/01:00pm SSW 7 12 - - - - 10 - - 16.7 1013.8 0.0
18/12:30pm SW 9 11 - - - - 10 - - 16.5 1014.1 0.0
18/12:00pm WNW 8 10 - - - - 10 - - 16.2 1014.1 0.0
18/11:30am WNW 9 12 - - - - 10 - - 16.0 1014.5 0.0
18/11:00am W 9 13 - - - - 10 - - 15.6 1014.8 0.0
18/10:30am W 9 13 - - - - 10 - - 14.9 1015.0 0.0
18/10:00am WNW 10 14 - - - - 10 - - 14.5 1015.1 0.0
18/09:30am W 12 17 - - - - 10 - - 13.7 1015.0 0.0
18/09:00am W 11 18 - - - - 10 - - 13.2 1014.6 0.0
18/08:30am W 10 16 - - - - 10 - - 12.5 1014.3 0.0
18/08:00am W 11 18 - - - - 10 - - 11.9 1013.7 0.0
18/07:30am WNW 11 15 - - - - 10 - - 11.5 1013.0 0.0
18/07:00am WNW 11 15 - - - - 10 - - 11.3 1012.6 0.0
18/06:30am WNW 10 14 - - - - 10 - - 10.9 1012.3 0.0
18/06:00am WNW 11 14 - - - - 10 - - 11.2 1011.8 0.0
18/05:30am WNW 10 17 - - - - 10 - - 11.2 1011.6 0.0
18/05:00am WNW 9 14 - - - - 10 - - 11.0 1011.7 0.0
18/04:30am WNW 7 11 - - - - 10 - - 11.0 1011.5 0.0
18/04:00am W 9 13 - - - - 10 - - 10.8 1011.5 0.0
18/03:30am W 7 9 - - - - 10 - - 9.9 1011.6 0.0
18/03:00am W 7 9 - - - - 10 - - 10.3 1011.8 0.0
18/02:30am W 6 11 - - - - 10 - - 10.7 1011.6 0.0
18/02:00am W 7 12 - - - - 10 - - 11.1 1011.5 0.0
18/01:30am W 9 13 - - - - 10 - - 11.7 1011.4 0.0
18/01:00am W 9 15 - - - - 10 - - 11.8 1011.5 0.0
18/12:30am W 9 13 - - - - 10 - - 11.6 1011.4 0.0
18/12:00am W 11 16 - - - - 10 Partly cloudy - 11.4 1011.7 0.0
 
Date/Time
EST
Wind Sea
Height
m
Swell Vis
km
Cloud Weather Temp
°C
Press
hPa
Rain since
9am
mm
Dir  Spd
kts
Gust
kts
Height
m
Period
s
Dir
17/11:30pm W 5 10 - - - - 10 - - 11.6 1012.0 0.0
17/11:00pm WNW 10 15 - - - - 10 - - 11.6 1012.3 0.0
17/10:30pm WNW 9 13 - - - - 10 - - 11.7 1012.7 0.0
17/10:00pm WNW 8 14 - - - - 10 - - 11.5 1013.0 0.0
17/09:30pm W 9 15 - - - - 10 - - 11.6 1013.2 0.0
17/09:00pm W 8 12 - - - - 10 Cloudy - 12.0 1013.0 0.0
17/08:30pm W 10 16 - - - - 10 - - 12.1 1013.1 0.0
17/08:00pm W 11 17 - - - - 10 - - 12.5 1013.7 0.0
17/07:50pm WNW 15 25 - - - - 10 - - 12.6 1013.6 0.0
17/07:30pm W 15 21 - - - - 10 - - 12.6 1013.2 0.0
17/07:00pm W 15 26 - - - - 10 - - 12.7 1012.9 0.0
17/06:58pm W 15 26 - - - - 10 - - 12.9 1012.9 0.0
17/06:30pm W 15 23 - - - - 10 - - 12.8 1012.8 0.0
17/06:00pm W 16 24 - - - - 10 Cloudy - 13.0 1012.4 0.0
17/05:47pm W 15 25 - - - - 10 - - 13.2 1012.1 0.0
17/05:30pm WNW 15 23 - - - - 10 - - 13.3 1011.9 0.0
17/05:07pm W 16 28 - - - - 10 - - 13.6 1011.4 0.0
17/05:00pm W 14 21 - - - - 10 - - 13.5 1011.4 0.0
17/04:44pm WNW 15 26 - - - - 10 - - 13.9 1011.2 0.0
17/04:30pm WNW 14 21 - - - - 10 - - 13.9 1011.2 0.0
17/04:20pm WNW 15 25 - - - - 10 - - 14.1 1011.2 0.0
17/04:00pm WNW 13 18 - - - - 10 - - 14.4 1011.0 0.0
17/03:32pm WNW 17 27 - - - - 10 - - 14.6 1010.9 0.0
17/03:30pm WNW 17 24 - - - - 10 - - 14.6 1011.0 0.0
17/03:00pm WNW 16 21 - - - - 10 - - 15.8 1011.6 0.0
17/02:30pm WNW 13 21 - - - - 10 - - 16.1 1011.6 0.0
17/02:00pm WNW 14 21 - - - - 10 - - 16.4 1011.8 0.0
17/01:30pm WNW 13 19 - - - - 10 - - 16.6 1012.1 0.0
17/01:00pm WNW 11 17 - - - - 10 - - 16.4 1013.0 0.0
17/12:30pm WNW 14 19 - - - - 10 - - 16.5 1013.4 0.0
17/12:00pm WNW 12 17 - - - - 10 - - 16.3 1014.3 0.0
17/11:30am WNW 11 16 - - - - 10 - - 15.9 1015.2 0.0
17/11:00am WNW 10 14 - - - - 10 - - 15.7 1015.8 0.0
17/10:30am WNW 12 17 - - - - 10 - - 14.9 1016.3 0.0
17/10:00am WNW 10 14 - - - - 10 - - 14.1 1016.5 0.0
17/09:30am WNW 10 13 - - - - 10 - - 13.6 1016.9 0.0
17/09:00am WNW 10 14 - - - - 10 - - 12.5 1016.8 0.0
17/08:30am NW 8 11 - - - - 10 - - 11.6 1016.9 0.0
17/08:00am WNW 9 11 - - - - 10 - - 10.8 1016.9 0.0
17/07:30am WNW 10 13 - - - - 10 - - 10.4 1017.0 0.0
17/07:00am WNW 10 14 - - - - 10 - - 10.4 1017.1 0.0
17/06:30am WNW 11 15 - - - - 10 - - 10.2 1017.1 0.0
17/06:00am WNW 9 13 - - - - 10 - - 10.3 1016.9 0.0
17/05:30am WNW 12 18 - - - - 10 - - 10.7 1016.9 0.0
17/05:00am WNW 10 16 - - - - 10 - - 10.3 1016.9 0.0
17/04:30am WNW 11 13 - - - - 10 - - 10.8 1017.3 0.0
17/04:00am WNW 9 13 - - - - 10 - - 10.9 1017.3 0.0
17/03:30am WNW 10 14 - - - - 10 - - 10.7 1017.4 0.0
17/03:00am WNW 10 14 - - - - 10 - - 10.8 1017.5 0.0
17/02:30am WNW 9 12 - - - - 10 - - 10.5 1017.6 0.0
17/02:00am WNW 11 16 - - - - 10 - - 11.1 1017.6 0.0
17/01:30am WNW 12 18 - - - - 10 - - 11.4 1017.9 0.0
17/01:00am WNW 12 17 - - - - 10 - - 11.3 1017.8 0.0
17/12:30am WNW 13 19 - - - - 10 - - 11.6 1017.8 0.0
17/12:00am WNW 11 15 - - - - 10 - - 11.5 1018.0 0.0
 
Date/Time
EST
Wind Sea
Height
m
Swell Vis
km
Cloud Weather Temp
°C
Press
hPa
Rain since
9am
mm
Dir  Spd
kts
Gust
kts
Height
m
Period
s
Dir
16/11:30pm W 11 16 - - - - 10 - - 11.7 1018.2 0.0
16/11:00pm WNW 13 18 - - - - 10 - - 11.8 1018.1 0.0
16/10:30pm W 8 12 - - - - 10 - - 11.5 1018.1 0.0

Other formats

Comma delimited format used in spreadsheet applications
http://www.bom.gov.au/fwo/IDN60701/IDN60701.94751.axf

JavaScript Object Notation format (JSON) in row-major order
http://www.bom.gov.au/fwo/IDN60701/IDN60701.94751.json

Data quality

Most of these data are generated automatically and are frequently updated. Quality checks on data are not normally performed. It is possible for incorrect values to appear. Refer to information at About Latest Weather Observations and please check the disclaimer before using these data.